createdAt,value
2023-02-13T00:00:23.187Z,91.56
2023-02-13T00:01:25.189Z,91.48
2023-02-13T00:02:27.854Z,91.66
2023-02-13T00:03:30.391Z,91.68
2023-02-13T00:04:32.269Z,91.64
2023-02-13T00:05:34.158Z,91.43
2023-02-13T00:06:36.094Z,91.87
2023-02-13T00:07:37.985Z,91.49
2023-02-13T00:08:39.900Z,91.51
2023-02-13T00:09:41.824Z,91.62
2023-02-13T00:10:43.705Z,91.48
2023-02-13T00:11:45.647Z,91.74
2023-02-13T00:12:47.575Z,91.43
2023-02-13T00:13:49.466Z,91.49
2023-02-13T00:14:51.404Z,91.57
2023-02-13T00:15:57.801Z,91.79
2023-02-13T00:16:59.699Z,91.82
2023-02-13T00:18:02.802Z,92.06
2023-02-13T00:19:04.613Z,92.18
2023-02-13T00:20:06.707Z,91.87
2023-02-13T00:21:12.573Z,92.05
2023-02-13T00:22:17.683Z,91.99
2023-02-13T00:23:19.555Z,92.17
2023-02-13T00:24:21.458Z,92.16
2023-02-13T00:25:23.268Z,92.01
2023-02-13T00:26:25.213Z,92.42
2023-02-13T00:27:27.108Z,92.68
2023-02-13T00:28:29.103Z,92.87
2023-02-13T00:29:30.967Z,92.50
2023-02-13T00:30:32.772Z,92.88
2023-02-13T00:31:34.818Z,92.54
2023-02-13T00:32:36.772Z,93.14
2023-02-13T00:33:39.059Z,93.31
2023-02-13T00:34:41.017Z,92.63
2023-02-13T00:35:42.871Z,92.71
2023-02-13T00:36:44.827Z,92.57
2023-02-13T00:37:46.767Z,92.51
2023-02-13T00:38:49.171Z,92.06
2023-02-13T00:39:51.005Z,91.94
2023-02-13T00:40:52.900Z,91.85
2023-02-13T00:41:54.800Z,91.95
2023-02-13T00:42:56.691Z,91.67
2023-02-13T00:43:58.482Z,91.61
2023-02-13T00:45:00.302Z,91.75
2023-02-13T00:46:02.351Z,91.85
2023-02-13T00:47:04.265Z,91.51
2023-02-13T00:48:06.323Z,91.41
2023-02-13T00:49:09.600Z,91.21
2023-02-13T00:50:11.479Z,91.31
2023-02-13T00:51:13.728Z,90.93
2023-02-13T00:52:15.630Z,91.42
2023-02-13T00:53:17.450Z,91.80
2023-02-13T00:54:19.336Z,91.55
2023-02-13T00:55:21.229Z,92.00
2023-02-13T00:56:23.139Z,91.44
2023-02-13T00:57:25.085Z,91.50
2023-02-13T00:58:27.967Z,91.32
2023-02-13T00:59:29.817Z,91.21
2023-02-13T01:00:31.667Z,91.41
2023-02-13T01:01:33.737Z,91.31
2023-02-13T01:02:36.552Z,90.80
2023-02-13T01:03:38.476Z,91.02
2023-02-13T01:04:40.320Z,90.91
2023-02-13T01:05:42.950Z,91.61
2023-02-13T01:06:44.895Z,91.52
2023-02-13T01:07:46.772Z,91.77
2023-02-13T01:08:48.625Z,91.41
2023-02-13T01:09:50.620Z,91.53
2023-02-13T01:10:52.537Z,91.60
2023-02-13T01:11:54.536Z,91.00
2023-02-13T01:12:56.477Z,91.37
2023-02-13T01:13:58.276Z,91.54
2023-02-13T01:15:00.114Z,91.88
2023-02-13T01:16:02.071Z,91.42
2023-02-13T01:17:04.005Z,91.50
2023-02-13T01:18:06.047Z,91.40
2023-02-13T01:19:07.947Z,91.86
2023-02-13T01:20:11.435Z,91.44
2023-02-13T01:21:16.710Z,91.37
2023-02-13T01:22:18.731Z,91.22
2023-02-13T01:23:20.612Z,91.20
2023-02-13T01:24:22.523Z,91.86
2023-02-13T01:25:24.731Z,91.83
2023-02-13T01:26:26.577Z,91.33
2023-02-13T01:27:29.254Z,91.21
2023-02-13T01:28:31.163Z,91.09
2023-02-13T01:29:33.154Z,90.92
2023-02-13T01:30:35.696Z,91.16
2023-02-13T01:31:37.623Z,91.21
2023-02-13T01:32:43.813Z,90.92
2023-02-13T01:33:45.743Z,91.51
2023-02-13T01:34:47.553Z,91.52
2023-02-13T01:35:49.861Z,91.57
2023-02-13T01:36:51.710Z,91.18
2023-02-13T01:37:53.699Z,91.21
2023-02-13T01:38:56.899Z,91.26
2023-02-13T01:39:58.724Z,90.98
2023-02-13T01:41:00.586Z,91.06
2023-02-13T01:42:02.446Z,90.77
2023-02-13T01:43:04.418Z,91.14
2023-02-13T01:44:24.979Z,91.05
2023-02-13T01:45:28.468Z,91.00
2023-02-13T01:46:39.074Z,90.19
2023-02-13T01:47:45.358Z,90.13
2023-02-13T01:48:48.927Z,90.29
2023-02-13T01:49:52.720Z,90.32
2023-02-13T01:51:09.022Z,90.29
2023-02-13T01:52:11.760Z,90.12
2023-02-13T01:53:23.540Z,90.30
2023-02-13T01:54:31.437Z,89.93
2023-02-13T01:55:35.390Z,89.80
2023-02-13T01:56:43.695Z,90.19
2023-02-13T01:57:51.000Z,90.29
2023-02-13T01:58:55.053Z,90.30
2023-02-13T02:00:07.783Z,90.30
2023-02-13T02:01:10.288Z,90.16
2023-02-13T02:02:12.567Z,90.45
2023-02-13T02:03:17.117Z,90.06
2023-02-13T02:04:34.328Z,90.31
2023-02-13T02:05:36.759Z,90.50
2023-02-13T02:06:41.252Z,89.99
2023-02-13T02:07:43.291Z,90.80
2023-02-13T02:08:46.480Z,90.91
2023-02-13T02:09:48.682Z,90.96
2023-02-13T02:10:50.538Z,91.02
2023-02-13T02:11:58.910Z,90.79
2023-02-13T02:13:03.901Z,89.96
2023-02-13T02:14:05.736Z,90.56
2023-02-13T02:15:07.969Z,90.58
2023-02-13T02:16:10.193Z,90.66
2023-02-13T02:17:12.378Z,90.83
2023-02-13T02:18:16.034Z,90.38
2023-02-13T02:19:36.744Z,90.67
2023-02-13T02:20:57.379Z,89.99
2023-02-13T02:22:02.293Z,89.94
2023-02-13T02:23:07.124Z,90.13
2023-02-13T02:24:38.296Z,90.20
2023-02-13T02:26:01.869Z,90.42
2023-02-13T02:27:12.947Z,90.17
2023-02-13T02:28:33.216Z,90.55
2023-02-13T02:29:35.064Z,90.58
2023-02-13T02:30:56.185Z,90.95
2023-02-13T02:32:00.937Z,90.92
2023-02-13T02:33:17.631Z,90.83
2023-02-13T02:34:34.795Z,90.95
2023-02-13T02:35:36.575Z,91.17
2023-02-13T02:36:48.274Z,91.51
2023-02-13T02:38:08.784Z,91.40
2023-02-13T02:39:29.419Z,91.93
2023-02-13T02:40:38.870Z,91.53
2023-02-13T02:41:43.945Z,91.67
2023-02-13T02:43:04.646Z,91.70
2023-02-13T02:44:09.546Z,92.22
2023-02-13T02:45:11.358Z,91.60
2023-02-13T02:46:13.207Z,91.73
2023-02-13T02:47:33.588Z,92.01
2023-02-13T02:49:07.847Z,91.99
2023-02-13T02:50:09.650Z,91.75
2023-02-13T02:51:11.481Z,91.78
2023-02-13T02:52:18.612Z,91.46
2023-02-13T02:53:26.778Z,91.44
2023-02-13T02:54:54.532Z,91.94
2023-02-13T02:56:00.857Z,91.92
2023-02-13T02:57:06.219Z,91.66
2023-02-13T02:58:26.415Z,91.77
2023-02-13T02:59:47.507Z,92.07
2023-02-13T03:01:09.081Z,91.87
2023-02-13T03:02:31.028Z,92.24
2023-02-13T03:03:53.390Z,91.93
2023-02-13T03:05:15.852Z,91.44
2023-02-13T03:06:24.830Z,90.97
2023-02-13T03:07:27.243Z,91.38
2023-02-13T03:08:47.998Z,91.09
2023-02-13T03:10:12.427Z,90.91
2023-02-13T03:11:32.814Z,91.49
2023-02-13T03:12:57.118Z,90.65
2023-02-13T03:14:00.475Z,90.62
2023-02-13T03:15:02.397Z,90.49
2023-02-13T03:16:23.018Z,90.22
2023-02-13T03:17:43.117Z,90.32
2023-02-13T03:19:09.200Z,90.19
2023-02-13T03:21:05.021Z,90.14
2023-02-13T03:22:23.833Z,90.50
2023-02-13T03:23:40.428Z,90.30
2023-02-13T03:24:44.941Z,90.17
2023-02-13T03:26:02.786Z,90.54
2023-02-13T03:27:07.462Z,90.70
2023-02-13T03:28:40.508Z,90.80
2023-02-13T03:30:09.218Z,91.18
2023-02-13T03:31:21.488Z,91.28
2023-02-13T03:32:46.520Z,90.77
2023-02-13T03:33:48.401Z,90.51
2023-02-13T03:35:14.862Z,90.54
2023-02-13T03:36:40.932Z,91.50
2023-02-13T03:37:57.751Z,91.28
2023-02-13T03:39:08.294Z,91.92
2023-02-13T03:40:13.212Z,91.38
2023-02-13T03:41:23.734Z,91.30
2023-02-13T03:42:33.525Z,91.38
2023-02-13T03:43:49.780Z,91.34
2023-02-13T03:45:17.495Z,91.10
2023-02-13T03:46:20.471Z,91.30
2023-02-13T03:47:22.489Z,91.51
2023-02-13T03:48:47.640Z,91.83
2023-02-13T03:50:08.655Z,91.67
2023-02-13T03:51:12.881Z,91.37
2023-02-13T03:52:21.637Z,91.44
2023-02-13T03:53:24.884Z,92.15
2023-02-13T03:54:48.266Z,92.03
2023-02-13T03:56:09.753Z,92.13
2023-02-13T03:57:34.146Z,91.59
2023-02-13T03:58:56.235Z,91.96
2023-02-13T03:59:58.879Z,91.57
2023-02-13T04:01:02.921Z,91.33
2023-02-13T04:02:11.851Z,91.62
2023-02-13T04:03:24.477Z,91.72
2023-02-13T04:04:31.245Z,91.60
2023-02-13T04:05:37.165Z,91.11
2023-02-13T04:06:44.804Z,91.76
2023-02-13T04:07:46.750Z,91.31
2023-02-13T04:08:48.773Z,91.71
2023-02-13T04:09:50.605Z,92.34
2023-02-13T04:10:59.975Z,91.50
2023-02-13T04:12:06.458Z,92.20
2023-02-13T04:13:28.378Z,91.95
2023-02-13T04:14:43.026Z,91.48
2023-02-13T04:15:54.203Z,91.81
2023-02-13T04:17:03.879Z,91.28
2023-02-13T04:18:10.642Z,90.93
2023-02-13T04:19:13.393Z,91.41
2023-02-13T04:20:15.455Z,90.91
2023-02-13T04:21:17.403Z,91.77
2023-02-13T04:22:19.302Z,91.03
2023-02-13T04:23:21.255Z,91.02
2023-02-13T04:24:23.073Z,91.29
2023-02-13T04:25:24.947Z,91.68
2023-02-13T04:26:31.307Z,91.87
2023-02-13T04:27:33.293Z,92.00
2023-02-13T04:28:35.279Z,91.49
2023-02-13T04:29:37.139Z,92.23
2023-02-13T04:30:39.326Z,91.66
2023-02-13T04:31:41.549Z,91.40
2023-02-13T04:32:43.592Z,91.60
2023-02-13T04:33:45.484Z,91.50
2023-02-13T04:34:47.352Z,91.06
2023-02-13T04:35:49.296Z,91.46
2023-02-13T04:36:51.201Z,91.83
2023-02-13T04:37:53.113Z,91.87
2023-02-13T04:38:55.083Z,91.17
2023-02-13T04:39:56.918Z,91.64
2023-02-13T04:40:59.056Z,91.04
2023-02-13T04:42:01.078Z,91.44
2023-02-13T04:43:02.920Z,90.96
2023-02-13T04:44:05.112Z,90.89
2023-02-13T04:45:07.082Z,90.70
2023-02-13T04:46:09.040Z,91.03
2023-02-13T04:47:10.926Z,91.07
2023-02-13T04:48:12.964Z,90.93
2023-02-13T04:49:14.993Z,91.14
2023-02-13T04:50:16.950Z,91.06
2023-02-13T04:51:18.845Z,90.82
2023-02-13T04:52:20.719Z,90.18
2023-02-13T04:53:22.595Z,90.60
2023-02-13T04:54:24.600Z,90.86
2023-02-13T04:55:27.415Z,90.62
2023-02-13T04:56:29.359Z,90.61
2023-02-13T04:57:31.220Z,90.92
2023-02-13T04:58:33.075Z,90.01
2023-02-13T04:59:35.094Z,90.51
2023-02-13T05:00:37.894Z,90.24
2023-02-13T05:01:39.733Z,90.15
2023-02-13T05:02:41.520Z,90.56
2023-02-13T05:03:43.991Z,90.29
2023-02-13T05:04:46.122Z,89.60
2023-02-13T05:05:49.039Z,90.14
2023-02-13T05:06:50.939Z,90.33
2023-02-13T05:07:52.832Z,90.09
2023-02-13T05:08:54.670Z,89.84
2023-02-13T05:09:57.255Z,90.21
2023-02-13T05:10:59.386Z,90.11
2023-02-13T05:12:01.858Z,89.61
2023-02-13T05:13:03.737Z,89.74
2023-02-13T05:14:05.914Z,89.98
2023-02-13T05:15:07.955Z,89.93
2023-02-13T05:16:09.899Z,90.07
2023-02-13T05:17:11.746Z,90.73
2023-02-13T05:18:13.644Z,90.63
2023-02-13T05:19:15.982Z,90.32
2023-02-13T05:20:18.256Z,90.38
2023-02-13T05:21:38.459Z,91.02
2023-02-13T05:23:09.442Z,90.92
2023-02-13T05:24:11.330Z,90.43
2023-02-13T05:25:13.343Z,90.37
2023-02-13T05:26:15.132Z,91.02
2023-02-13T05:27:17.026Z,90.59
2023-02-13T05:28:37.696Z,90.35
2023-02-13T05:29:39.689Z,91.11
2023-02-13T05:30:41.566Z,90.14
2023-02-13T05:31:43.456Z,90.81
2023-02-13T05:32:45.316Z,90.35
2023-02-13T05:33:47.190Z,91.03
2023-02-13T05:34:49.075Z,90.46
2023-02-13T05:35:50.926Z,91.15
2023-02-13T05:36:52.943Z,90.34
2023-02-13T05:37:54.905Z,91.15
2023-02-13T05:38:56.747Z,90.98
2023-02-13T05:39:58.667Z,91.41
2023-02-13T05:41:00.915Z,91.02
2023-02-13T05:42:05.146Z,91.22
2023-02-13T05:43:07.010Z,90.84
2023-02-13T05:44:09.086Z,90.99
2023-02-13T05:45:11.033Z,90.80
2023-02-13T05:46:13.192Z,90.72
2023-02-13T05:47:15.142Z,90.49
2023-02-13T05:48:17.088Z,90.42
2023-02-13T05:49:19.652Z,90.35
2023-02-13T05:50:21.717Z,90.90
2023-02-13T05:51:23.668Z,90.91
2023-02-13T05:52:25.677Z,90.69
2023-02-13T05:53:27.879Z,90.39
2023-02-13T05:54:29.860Z,90.39
2023-02-13T05:55:31.753Z,90.38
2023-02-13T05:56:33.606Z,90.19
2023-02-13T05:57:35.477Z,90.30
2023-02-13T05:58:37.409Z,90.25
2023-02-13T05:59:39.342Z,90.33
2023-02-13T06:00:41.239Z,90.69
2023-02-13T06:01:43.063Z,90.59
2023-02-13T06:02:44.909Z,90.23
2023-02-13T06:03:46.970Z,90.73
2023-02-13T06:04:48.905Z,90.34
2023-02-13T06:05:50.701Z,90.70
2023-02-13T06:06:52.553Z,90.76
2023-02-13T06:07:54.438Z,90.68
2023-02-13T06:08:56.300Z,90.88
2023-02-13T06:10:00.117Z,90.51
2023-02-13T06:11:02.330Z,90.61
2023-02-13T06:12:04.466Z,90.64
2023-02-13T06:13:06.465Z,91.14
2023-02-13T06:14:08.412Z,90.74
2023-02-13T06:15:10.370Z,90.98
2023-02-13T06:16:12.898Z,90.22
2023-02-13T06:17:14.862Z,90.76
2023-02-13T06:18:17.466Z,90.35
2023-02-13T06:19:19.395Z,91.02
2023-02-13T06:20:21.342Z,91.24
2023-02-13T06:21:23.220Z,91.06
2023-02-13T06:22:25.132Z,90.59
2023-02-13T06:23:27.025Z,90.93
2023-02-13T06:24:28.985Z,90.96
2023-02-13T06:25:30.924Z,90.59
2023-02-13T06:26:32.833Z,90.83
2023-02-13T06:27:34.692Z,90.99
2023-02-13T06:28:36.797Z,90.78
2023-02-13T06:29:38.726Z,90.71
2023-02-13T06:30:40.623Z,90.59
2023-02-13T06:31:42.419Z,90.57
2023-02-13T06:32:44.382Z,90.75
2023-02-13T06:33:46.258Z,90.91
2023-02-13T06:34:48.122Z,90.74
2023-02-13T06:35:49.962Z,90.57
2023-02-13T06:36:53.161Z,90.67
2023-02-13T06:37:55.060Z,90.18
2023-02-13T06:38:56.916Z,90.30
2023-02-13T06:39:58.797Z,89.86
2023-02-13T06:41:02.463Z,90.01
2023-02-13T06:42:04.462Z,90.44
2023-02-13T06:43:06.414Z,90.01
2023-02-13T06:44:08.344Z,89.76
2023-02-13T06:45:10.626Z,90.21
2023-02-13T06:46:12.768Z,90.46
2023-02-13T06:47:14.679Z,90.40
2023-02-13T06:48:16.653Z,89.90
2023-02-13T06:49:18.588Z,90.40
2023-02-13T06:50:20.617Z,90.04
2023-02-13T06:51:22.536Z,90.06
2023-02-13T06:52:24.426Z,90.63
2023-02-13T06:53:26.300Z,90.68
2023-02-13T06:54:44.681Z,89.97
2023-02-13T06:55:48.032Z,90.22
2023-02-13T06:56:49.923Z,89.93
2023-02-13T06:57:51.794Z,90.09
2023-02-13T06:58:53.661Z,89.77
2023-02-13T06:59:55.544Z,89.38
2023-02-13T07:00:57.777Z,88.96
2023-02-13T07:01:59.870Z,89.56
2023-02-13T07:03:03.270Z,89.05
2023-02-13T07:04:05.204Z,89.69
2023-02-13T07:05:07.111Z,89.38
2023-02-13T07:06:09.060Z,88.88
2023-02-13T07:07:10.951Z,88.96
2023-02-13T07:08:13.340Z,88.98
2023-02-13T07:09:15.472Z,89.57
2023-02-13T07:10:17.384Z,89.85
2023-02-13T07:11:20.287Z,89.68
2023-02-13T07:12:22.398Z,89.07
2023-02-13T07:13:24.349Z,89.61
2023-02-13T07:14:26.162Z,89.23
2023-02-13T07:15:28.639Z,88.54
2023-02-13T07:16:30.565Z,88.70
2023-02-13T07:17:32.676Z,89.02
2023-02-13T07:18:34.486Z,89.29
2023-02-13T07:19:36.406Z,88.86
2023-02-13T07:20:38.267Z,88.87
2023-02-13T07:21:40.279Z,88.99
2023-02-13T07:22:42.139Z,88.84
2023-02-13T07:23:44.030Z,88.76
2023-02-13T07:24:45.861Z,88.76
2023-02-13T07:25:47.724Z,88.31
2023-02-13T07:26:49.642Z,88.21
2023-02-13T07:27:51.430Z,87.78
2023-02-13T07:29:09.245Z,87.87
2023-02-13T07:30:12.688Z,87.75
2023-02-13T07:31:14.625Z,87.50
2023-02-13T07:32:16.679Z,88.28
2023-02-13T07:33:18.682Z,88.11
2023-02-13T07:34:20.559Z,87.79
2023-02-13T07:35:22.386Z,87.24
2023-02-13T07:36:24.433Z,87.37
2023-02-13T07:37:28.266Z,86.83
2023-02-13T07:38:30.903Z,87.21
2023-02-13T07:39:33.143Z,86.82
2023-02-13T07:40:35.029Z,86.27
2023-02-13T07:41:36.965Z,86.75
2023-02-13T07:42:38.947Z,86.60
2023-02-13T07:43:40.804Z,86.09
2023-02-13T07:44:42.681Z,86.30
2023-02-13T07:45:44.609Z,86.39
2023-02-13T07:46:46.567Z,86.13
2023-02-13T07:47:48.559Z,86.31
2023-02-13T07:48:52.497Z,86.47
2023-02-13T07:49:55.136Z,86.22
2023-02-13T07:51:00.489Z,86.42
2023-02-13T07:52:02.281Z,86.16
2023-02-13T07:53:04.175Z,86.06
2023-02-13T07:54:06.113Z,86.51
2023-02-13T07:55:08.470Z,86.92
2023-02-13T07:56:11.029Z,85.99
2023-02-13T07:57:14.017Z,86.55
2023-02-13T07:58:15.983Z,86.32
2023-02-13T07:59:17.931Z,86.29
2023-02-13T08:00:20.062Z,85.92
2023-02-13T08:01:22.059Z,86.08
2023-02-13T08:02:23.916Z,86.00
2023-02-13T08:03:25.894Z,86.57
2023-02-13T08:04:27.739Z,86.82
2023-02-13T08:05:31.537Z,86.09
2023-02-13T08:06:33.300Z,86.04
2023-02-13T08:07:35.590Z,86.39
2023-02-13T08:08:38.782Z,85.78
2023-02-13T08:09:58.803Z,86.04
2023-02-13T08:11:24.672Z,85.75
2023-02-13T08:12:26.599Z,85.90
2023-02-13T08:13:28.466Z,85.97
2023-02-13T08:14:30.353Z,85.62
2023-02-13T08:15:32.277Z,85.57
2023-02-13T08:16:34.243Z,85.88
2023-02-13T08:17:36.160Z,85.46
2023-02-13T08:18:38.067Z,85.00
2023-02-13T08:19:39.923Z,85.04
2023-02-13T08:20:41.826Z,85.57
2023-02-13T08:21:43.767Z,85.55
2023-02-13T08:22:45.619Z,85.59
2023-02-13T08:23:49.101Z,85.21
2023-02-13T08:24:50.945Z,84.46
2023-02-13T08:25:54.860Z,84.97
2023-02-13T08:26:57.103Z,84.91
2023-02-13T08:27:59.873Z,83.85
2023-02-13T08:29:02.009Z,83.67
2023-02-13T08:30:05.183Z,84.02
2023-02-13T08:31:11.946Z,83.94
2023-02-13T08:32:14.150Z,83.85
2023-02-13T08:33:16.000Z,84.40
2023-02-13T08:34:22.377Z,83.80
2023-02-13T08:35:29.976Z,83.96
2023-02-13T08:36:32.008Z,84.34
2023-02-13T08:37:33.905Z,84.49
2023-02-13T08:38:35.856Z,83.40
2023-02-13T08:39:38.577Z,83.83
2023-02-13T08:40:40.995Z,83.70
2023-02-13T08:41:43.860Z,83.25
2023-02-13T08:42:45.686Z,83.02
2023-02-13T08:43:47.630Z,83.52
2023-02-13T08:44:49.553Z,83.07
2023-02-13T08:45:51.411Z,83.22
2023-02-13T08:46:53.337Z,83.74
2023-02-13T08:48:04.326Z,83.40
2023-02-13T08:49:06.327Z,84.12
2023-02-13T08:50:08.734Z,83.65
2023-02-13T08:51:12.200Z,83.06
2023-02-13T08:52:14.141Z,83.07
2023-02-13T08:53:15.970Z,83.13
2023-02-13T08:54:18.003Z,82.43
2023-02-13T08:55:20.183Z,82.38
2023-02-13T08:56:22.061Z,82.18
2023-02-13T08:57:23.992Z,82.28
2023-02-13T08:58:26.075Z,82.22
2023-02-13T08:59:28.057Z,82.34
2023-02-13T09:00:30.455Z,82.29
2023-02-13T09:01:32.460Z,81.85
2023-02-13T09:02:34.683Z,81.56
2023-02-13T09:03:37.282Z,81.96
2023-02-13T09:04:39.259Z,81.52
2023-02-13T09:05:41.152Z,81.28
2023-02-13T09:06:43.104Z,81.60
2023-02-13T09:07:45.176Z,81.19
2023-02-13T09:08:47.006Z,80.94
2023-02-13T09:09:49.070Z,80.54
2023-02-13T09:10:55.947Z,81.32
2023-02-13T09:11:58.245Z,81.39
2023-02-13T09:13:01.516Z,80.87
2023-02-13T09:14:03.753Z,80.98
2023-02-13T09:15:05.829Z,80.75
2023-02-13T09:16:08.731Z,80.26
2023-02-13T09:17:10.700Z,80.52
2023-02-13T09:18:12.592Z,80.45
2023-02-13T09:19:14.534Z,80.64
2023-02-13T09:20:16.441Z,80.38
2023-02-13T09:21:19.170Z,80.13
2023-02-13T09:22:21.067Z,80.20
2023-02-13T09:23:22.898Z,80.66
2023-02-13T09:24:24.943Z,80.01
2023-02-13T09:25:26.895Z,80.52
2023-02-13T09:26:28.810Z,80.45
2023-02-13T09:27:30.944Z,80.55
2023-02-13T09:28:33.854Z,80.31
2023-02-13T09:29:35.909Z,79.94
2023-02-13T09:30:37.753Z,79.67
2023-02-13T09:31:39.747Z,79.64
2023-02-13T09:32:42.323Z,79.20
2023-02-13T09:33:45.240Z,79.62
2023-02-13T09:34:47.227Z,79.55
2023-02-13T09:35:49.092Z,79.77
2023-02-13T09:36:54.687Z,79.71
2023-02-13T09:37:56.690Z,79.71
2023-02-13T09:38:58.617Z,79.78
2023-02-13T09:40:00.442Z,79.91
2023-02-13T09:41:11.366Z,79.71
2023-02-13T09:42:19.410Z,79.20
2023-02-13T09:43:48.902Z,79.00
2023-02-13T09:44:52.110Z,79.28
2023-02-13T09:45:56.305Z,79.49
2023-02-13T09:46:58.391Z,79.00
2023-02-13T09:48:00.421Z,79.99
2023-02-13T09:49:06.033Z,79.54
2023-02-13T09:50:29.189Z,79.59
2023-02-13T09:51:31.254Z,79.36
2023-02-13T09:52:34.011Z,79.85
2023-02-13T09:53:37.334Z,79.38
2023-02-13T09:54:39.390Z,79.54
2023-02-13T09:55:53.123Z,78.87
2023-02-13T09:57:24.101Z,78.41
2023-02-13T09:58:40.882Z,78.53
2023-02-13T09:59:42.822Z,78.48
2023-02-13T10:00:46.649Z,78.77
2023-02-13T10:01:49.479Z,79.10
2023-02-13T10:02:57.481Z,78.98
2023-02-13T10:03:59.331Z,79.73
2023-02-13T10:05:07.089Z,79.07
2023-02-13T10:06:15.710Z,79.53
2023-02-13T10:07:28.624Z,78.85
2023-02-13T10:08:41.941Z,78.53
2023-02-13T10:09:55.642Z,78.04
2023-02-13T10:11:21.033Z,78.06
2023-02-13T10:12:29.756Z,77.93
2023-02-13T10:13:50.203Z,77.65
2023-02-13T10:15:11.791Z,78.53
2023-02-13T10:16:16.423Z,77.45
2023-02-13T10:17:21.343Z,77.47
2023-02-13T10:18:25.533Z,77.92
2023-02-13T10:19:41.787Z,78.02
2023-02-13T10:20:54.934Z,76.64
2023-02-13T10:22:02.114Z,76.36
2023-02-13T10:23:27.241Z,77.50
2023-02-13T10:24:29.044Z,75.69
2023-02-13T10:25:36.302Z,75.45
2023-02-13T10:26:48.585Z,76.21
2023-02-13T10:27:52.624Z,76.39
2023-02-13T10:29:14.383Z,76.98
2023-02-13T10:30:17.810Z,75.64
2023-02-13T10:31:23.182Z,75.68
2023-02-13T10:32:31.207Z,75.38
2023-02-13T10:33:41.922Z,74.27
2023-02-13T10:34:47.448Z,74.76
2023-02-13T10:36:04.712Z,74.04
2023-02-13T10:37:13.014Z,74.96
2023-02-13T10:38:20.592Z,73.25
2023-02-13T10:39:26.856Z,73.76
2023-02-13T10:40:32.308Z,73.84
2023-02-13T10:41:44.720Z,74.08
2023-02-13T10:42:53.659Z,73.95
2023-02-13T10:44:14.105Z,71.58
2023-02-13T10:45:19.132Z,70.27
2023-02-13T10:46:30.889Z,71.13
2023-02-13T10:47:32.775Z,72.05
2023-02-13T10:48:44.017Z,72.71
2023-02-13T10:50:05.764Z,70.88
2023-02-13T10:51:16.271Z,71.63
2023-02-13T10:52:26.189Z,72.25
2023-02-13T10:53:40.853Z,70.61
2023-02-13T10:54:57.948Z,71.64
2023-02-13T10:56:35.224Z,69.99
2023-02-13T10:57:45.599Z,69.28
2023-02-13T10:58:53.972Z,68.40
2023-02-13T10:59:58.696Z,70.73
2023-02-13T11:01:07.680Z,69.35
2023-02-13T11:02:20.828Z,70.60
2023-02-13T11:03:23.731Z,68.97
2023-02-13T11:04:25.674Z,70.21
2023-02-13T11:05:31.893Z,70.84
2023-02-13T11:06:36.498Z,70.70
2023-02-13T11:07:39.668Z,70.19
2023-02-13T11:08:44.085Z,70.00
2023-02-13T11:09:47.908Z,70.06
2023-02-13T11:10:50.281Z,68.95
2023-02-13T11:11:52.853Z,69.03
2023-02-13T11:12:56.162Z,69.78
2023-02-13T11:14:08.567Z,68.61
2023-02-13T11:15:21.682Z,68.56
2023-02-13T11:16:23.682Z,67.42
2023-02-13T11:17:27.222Z,67.29
2023-02-13T11:18:30.366Z,68.09
2023-02-13T11:19:32.310Z,68.94
2023-02-13T11:20:34.232Z,70.08
2023-02-13T11:21:37.471Z,69.96
2023-02-13T11:22:42.827Z,67.97
2023-02-13T11:23:45.509Z,67.70
2023-02-13T11:24:59.376Z,67.12
2023-02-13T11:26:10.343Z,67.71
2023-02-13T11:27:14.139Z,68.02
2023-02-13T11:28:18.247Z,68.10
2023-02-13T11:29:25.979Z,68.00
2023-02-13T11:30:30.606Z,68.03
2023-02-13T11:31:36.429Z,66.92
2023-02-13T11:32:38.494Z,65.17
2023-02-13T11:33:41.006Z,67.29
2023-02-13T11:34:42.945Z,66.54
2023-02-13T11:35:46.028Z,64.06
2023-02-13T11:36:52.030Z,66.33
2023-02-13T11:38:12.644Z,65.96
2023-02-13T11:39:21.840Z,64.60
2023-02-13T11:40:31.317Z,65.28
2023-02-13T11:41:39.788Z,65.61
2023-02-13T11:42:42.646Z,63.98
2023-02-13T11:43:52.697Z,63.34
2023-02-13T11:45:06.606Z,63.24
2023-02-13T11:46:14.061Z,63.48
2023-02-13T11:47:17.029Z,61.63
2023-02-13T11:48:23.588Z,64.37
2023-02-13T11:49:26.861Z,63.85
2023-02-13T11:50:40.777Z,62.16
2023-02-13T11:51:50.503Z,61.53
2023-02-13T11:53:03.475Z,63.12
2023-02-13T11:54:05.649Z,62.29
2023-02-13T11:55:26.449Z,62.58
2023-02-13T11:56:28.297Z,59.96
2023-02-13T11:57:30.099Z,59.36
2023-02-13T11:58:32.212Z,59.92
2023-02-13T11:59:40.060Z,58.66
2023-02-13T12:00:42.623Z,59.73
2023-02-13T12:01:49.415Z,59.02
2023-02-13T12:02:51.358Z,61.55
2023-02-13T12:04:07.803Z,60.38
2023-02-13T12:05:23.658Z,58.27
2023-02-13T12:06:25.512Z,58.98
2023-02-13T12:07:28.864Z,58.55
2023-02-13T12:08:31.734Z,58.90
2023-02-13T12:09:33.588Z,58.96
2023-02-13T12:10:37.823Z,59.00
2023-02-13T12:11:42.732Z,58.96
2023-02-13T12:12:47.680Z,58.46
2023-02-13T12:13:50.576Z,58.58
2023-02-13T12:14:52.494Z,57.71
2023-02-13T12:16:00.963Z,58.27
2023-02-13T12:17:03.035Z,58.75
2023-02-13T12:18:25.865Z,58.30
2023-02-13T12:19:35.569Z,57.66
2023-02-13T12:21:15.812Z,57.08
2023-02-13T12:22:30.772Z,58.67
2023-02-13T12:23:48.226Z,58.57
2023-02-13T12:25:01.944Z,57.87
2023-02-13T12:26:10.448Z,55.50
2023-02-13T12:27:30.998Z,57.19
2023-02-13T12:28:35.464Z,58.19
2023-02-13T12:29:55.834Z,55.56
2023-02-13T12:31:16.507Z,55.01
2023-02-13T12:32:20.016Z,53.71
2023-02-13T12:33:27.784Z,53.79
2023-02-13T12:34:48.188Z,54.42
2023-02-13T12:35:55.962Z,54.70
2023-02-13T12:37:04.842Z,56.40
2023-02-13T12:38:25.446Z,55.03
2023-02-13T12:39:33.531Z,55.16
2023-02-13T12:40:44.166Z,55.85
2023-02-13T12:41:49.043Z,57.54
2023-02-13T12:43:04.979Z,56.83
2023-02-13T12:44:06.837Z,56.65
2023-02-13T12:45:08.695Z,57.45
2023-02-13T12:46:22.405Z,56.74
2023-02-13T12:47:27.407Z,55.64
2023-02-13T12:48:40.450Z,55.87
2023-02-13T12:49:43.255Z,55.11
2023-02-13T12:50:54.359Z,55.17
2023-02-13T12:52:11.064Z,55.63
2023-02-13T12:53:16.731Z,55.91
2023-02-13T12:54:20.939Z,55.68
2023-02-13T12:55:35.322Z,56.24
2023-02-13T12:56:43.026Z,56.40
2023-02-13T12:57:44.802Z,55.49
2023-02-13T12:59:09.646Z,55.09
2023-02-13T13:00:30.085Z,55.55
2023-02-13T13:01:35.001Z,55.99
2023-02-13T13:02:57.068Z,55.79
2023-02-13T13:04:05.064Z,55.57
2023-02-13T13:05:19.199Z,54.99
2023-02-13T13:06:27.237Z,55.78
2023-02-13T13:07:41.132Z,55.62
2023-02-13T13:08:56.313Z,55.13
2023-02-13T13:10:00.862Z,55.15
2023-02-13T13:11:02.635Z,55.59
2023-02-13T13:12:16.754Z,55.34
2023-02-13T13:13:35.892Z,54.25
2023-02-13T13:14:56.189Z,54.44
2023-02-13T13:16:19.434Z,54.12
2023-02-13T13:17:40.278Z,54.19
2023-02-13T13:18:42.068Z,54.84
2023-02-13T13:19:57.644Z,55.53
2023-02-13T13:21:18.567Z,55.52
2023-02-13T13:22:35.326Z,56.40
2023-02-13T13:24:00.546Z,54.64
2023-02-13T13:25:11.618Z,55.41
2023-02-13T13:26:13.408Z,56.00
2023-02-13T13:27:25.226Z,54.67
2023-02-13T13:28:30.025Z,55.67
2023-02-13T13:29:40.134Z,55.34
2023-02-13T13:30:43.070Z,56.09
2023-02-13T13:31:48.735Z,55.91
2023-02-13T13:33:02.747Z,57.01
2023-02-13T13:34:06.976Z,56.90
2023-02-13T13:35:15.728Z,55.37
2023-02-13T13:36:36.948Z,55.64
2023-02-13T13:37:44.682Z,55.03
2023-02-13T13:39:05.296Z,55.03
2023-02-13T13:40:24.504Z,54.58
2023-02-13T13:41:26.419Z,55.08
2023-02-13T13:42:31.284Z,55.62
2023-02-13T13:43:43.820Z,55.69
2023-02-13T13:44:51.580Z,55.98
2023-02-13T13:46:04.243Z,56.30
2023-02-13T13:47:13.143Z,56.62
2023-02-13T13:48:41.102Z,56.18
2023-02-13T13:49:48.864Z,55.47
2023-02-13T13:50:51.121Z,55.10
2023-02-13T13:51:53.098Z,55.70
2023-02-13T13:53:07.233Z,55.97
2023-02-13T13:54:08.998Z,55.83
2023-02-13T13:55:30.732Z,55.33
2023-02-13T13:56:50.966Z,55.69
2023-02-13T13:58:00.132Z,56.24
2023-02-13T13:59:02.034Z,56.26
2023-02-13T14:00:12.043Z,56.04
2023-02-13T14:01:15.796Z,55.53
2023-02-13T14:02:17.798Z,56.48
2023-02-13T14:03:24.550Z,55.31
2023-02-13T14:04:32.409Z,55.51
2023-02-13T14:05:35.570Z,54.79
2023-02-13T14:06:46.383Z,54.87
2023-02-13T14:07:50.385Z,54.17
2023-02-13T14:08:52.367Z,55.11
2023-02-13T14:09:54.432Z,55.14
2023-02-13T14:11:01.172Z,55.52
2023-02-13T14:12:22.968Z,55.10
2023-02-13T14:13:50.958Z,54.61